Flight Track Log - Related Links

Times and Time Zones

All times are in EDT time to prevent confusion due to time zone crossing. See the AMF7123 flight status page for this flight to view local times or setup timezone preferences in your user account.

Time Position Orientation Groundspeed Altitude Reporting Facility
EDT Latitude Longitude Course Direction KTS MPH feet Rate Location/Type
Mon 08:20:00 PM 22.7705 -81.2467 North  Level FlightAware Approximate
Mon 08:20:26 PM 23.4806 -81.3456 North 246 283 20,000  Level Miami Center
Mon 08:21:00 PM 22.8383 -81.2450 North  Level FlightAware Approximate
Mon 08:21:26 PM 23.5625 -81.3258 12° North 264 304 20,000  Level Miami Center
Mon 08:22:00 PM 22.9062 -81.2434 North  Level FlightAware Approximate
Mon 08:22:26 PM 23.6425 -81.3061 13° North 279 321 20,000  Level Miami Center
Mon 08:23:00 PM 22.9740 -81.2418 North  Level FlightAware Approximate
Mon 08:23:26 PM 23.7222 -81.2883 12° North 284 327 20,000  Level Miami Center
Mon 08:24:00 PM 23.0419 -81.2401 North  Level FlightAware Approximate
Mon 08:24:26 PM 23.8022 -81.2683 13° North 284 327 20,000  Level Miami Center
Mon 08:25:00 PM 23.1097 -81.2385 North  Level FlightAware Approximate
Mon 08:25:26 PM 23.8800 -81.2553 North 299 344 20,000  Level Miami Center
Mon 08:26:26 PM 23.9597 -81.2422 North 294 338 20,000  Level Miami Center
Mon 08:27:26 PM 24.0414 -81.2292 North 294 338 20,000  Level Miami Center
Mon 08:28:26 PM 24.1194 -81.2089 13° North 294 338 20,000  Level Miami Center
Mon 08:29:26 PM 24.1969 -81.1958 North 294 338 20,000  Level Miami Center
Mon 08:30:26 PM 24.2747 -81.1781 12° North 288 331 20,000  Level Miami Center
Mon 08:31:26 PM 24.3525 -81.1669 North 283 326 20,000 -150 Level Miami Center
Mon 08:32:26 PM 24.4300 -81.1514 10° North 278 320 19,700 -500 Descending Miami Center
Mon 08:33:26 PM 24.5119 -81.1336 11° North 278 320 19,000 -800 Descending Miami Center
Mon 08:34:26 PM 24.5961 -81.1183 North 289 333 18,100 -850 Descending Miami Center
Mon 08:35:26 PM 24.6800 -81.1006 11° North 294 338 17,300 -550 Descending Miami Center
Mon 08:36:26 PM 24.7619 -81.0875 North 299 344 17,000 -250 Descending Miami Center
Mon 08:37:26 PM 24.8414 -81.0833 North 294 338 16,800 -600 Descending Miami Center
Mon 08:38:26 PM 24.9247 -81.0953 353° North 294 338 15,800 -1,050 Descending Miami Center
Mon 08:39:26 PM 25.0097 -81.1097 351° North 294 338 14,700 -900 Descending Miami Center
Mon 08:40:26 PM 25.0908 -81.1217 352° North 300 345 14,000 -1,050 Descending Miami Center
Mon 08:41:26 PM 25.1692 -81.0875 22° Northeast 280 322 12,600 3,000 Descending Miami Center
Mon 08:42:26 PM 25.2433 -81.0536 22° Northeast 280 322 20,000 -1,345 Climbing Miami Center
Mon 08:43:22 PM 25.3214 -81.0264 17° North 304 350 10,000 -10,000 Descending Miami Center
Mon 08:43:26 PM 25.3172 -81.0192 123° Southeast 285 328 10,000 -1,200 Level Miami Center
Mon 08:43:47 PM 25.3469 -81.0042 25° Northeast 307 353 9,500 -1,100 Descending Miami Center
Mon 08:44:26 PM 25.3914 -80.9872 19° North 285 328 8,900 -985 Descending Miami Center
Mon 08:44:54 PM 25.4294 -80.9703 22° Northeast 280 322 8,400 -800 Descending Miami Center
Mon 08:45:26 PM 25.4653 -80.9553 21° North 285 328 8,100 -295 Descending Miami Center
Mon 08:45:55 PM 25.5014 -80.9381 23° Northeast 276 318 8,100  Level Miami Center
Mon 08:46:26 PM 25.5353 -80.9231 22° Northeast 273 314 8,100  Level Miami Center
Mon 08:46:56 PM 25.5592 -80.8872 54° Northeast 271 312 8,100 -400 Level Miami Center
Mon 08:47:26 PM 25.5786 -80.8603 51° Northeast 254 292 7,700 -1,082 Descending Miami Center
Mon 08:47:57 PM 25.6208 -80.8431 20° North 272 313 7,000 -1,100 Descending Miami Center
Mon 08:48:26 PM 25.6522 -80.8419 North 254 292 6,600 -1,082 Descending Miami Center
Mon 08:48:58 PM 25.6958 -80.8525 348° North 265 305 5,900 -1,200 Descending Miami Center
Mon 08:49:26 PM 25.7211 -80.8442 17° North 244 281 5,400 -1,377 Descending Miami Center
Mon 08:49:59 PM 25.7553 -80.8200 32° Northeast 242 278 4,500 -1,300 Descending Miami Center
Mon 08:50:26 PM 25.7786 -80.8022 34° Northeast 238 274 4,100 -429 Descending Miami Center
Mon 08:50:55 PM 25.8064 -80.7800 36° Northeast 239 275 4,100 -700 Level Miami Center
Mon 08:51:26 PM 25.8403 -80.7581 30° Northeast 233 268 3,400 -909 Descending Miami Center
Mon 08:52:01 PM 25.8561 -80.7194 65° Northeast 252 290 3,100 -300 Descending Miami Center
Mon 08:52:26 PM 25.8631 -80.6894 76° East 224 258 3,100  Level Miami Center
Mon 08:53:02 PM 25.8600 -80.6433 94° East 255 293 3,100 -62 Level Miami Center
Mon 08:54:03 PM 25.8475 -80.5689 101° East 257 296 3,000  Descending Miami Center
Mon 08:54:59 PM 25.8258 -80.5131 113° Southeast 201 231 3,100 -103 Climbing Miami Center
Mon 08:56:00 PM 25.8044 -80.4522 111° Southeast 203 234 2,800 -639 Descending Miami Center
Mon 08:57:01 PM 25.7972 -80.4014 99° East 157 181 1,800 -934 Descending Miami Center
Mon 08:58:02 PM 25.7983 -80.3528 89° East 147 169 900 -703 Descending Miami Center
Mon 08:59:09 PM 25.7994 -80.3092 88° East 118 136 300 -537 Descending Miami Center
Mon 09:01:00 PM 25.7954 -80.2901 90° East  Level Estimated

Login

Don't have an account? Register now (free) for customized features, flight alerts, and more!